LHX04E EDDM-LEVC
Flight info
| Callsign | LHX04E |
|---|---|
| Flight time | N/A |
| Altitude | 35000 |
| Route | TURBU7S/26L TURBU Y107 TOBSO DCT BAKOR DCT GEKBA DCT VAMTU DCT KOLON DCT GANGU DCT PADKO DCT DIVKO DCT MAMES DCT BISBA DCT BGR DCT NENDA DCT BCN DCT RODRA DCT PEXOT DCT EBROX DCT LOTOS DCT TORDU DCT DIKUT M985 SOPET |
| Aircraft | A320/M-SDE3FGHIRWY/LB1 |
Departure
| Time | 2026-05-06 17:19 |
|---|---|
| Airport | Munich Airport (EDDM) |
Arrival
| Time | N/A |
|---|---|
| Airport | Valencia Airport (LEVC) |
| Time | Latitude | Longitude | Altitude | Speed | Heading |
|---|---|---|---|---|---|
| 2026-05-06 16:35 | 48.35510 | 11.80253 | 1475 ft | 0 kts | 83° |
| 2026-05-06 17:04 | 48.35510 | 11.80250 | 1485 ft | 2 kts | 83° |
| 2026-05-06 17:04 | 48.35507 | 11.80211 | 1478 ft | 4 kts | 83° |
| 2026-05-06 17:05 | 48.35504 | 11.80178 | 1471 ft | 4 kts | 88° |
| 2026-05-06 17:05 | 48.35511 | 11.80153 | 1471 ft | 4 kts | 165° |
| 2026-05-06 17:05 | 48.35534 | 11.80147 | 1476 ft | 2 kts | 173° |
| 2026-05-06 17:05 | 48.35536 | 11.80147 | 1477 ft | 0 kts | 173° |
| 2026-05-06 17:10 | 48.35534 | 11.80148 | 1485 ft | 2 kts | 173° |
| 2026-05-06 17:10 | 48.35487 | 11.80156 | 1475 ft | 8 kts | 173° |
| 2026-05-06 17:11 | 48.35441 | 11.80166 | 1476 ft | 7 kts | 167° |
| 2026-05-06 17:11 | 48.35385 | 11.80188 | 1485 ft | 10 kts | 172° |
| 2026-05-06 17:11 | 48.35305 | 11.80202 | 1476 ft | 12 kts | 173° |
| 2026-05-06 17:11 | 48.35221 | 11.80216 | 1485 ft | 12 kts | 173° |
| 2026-05-06 17:12 | 48.35144 | 11.80229 | 1481 ft | 10 kts | 176° |
| 2026-05-06 17:12 | 48.35107 | 11.80158 | 1482 ft | 10 kts | 262° |
| 2026-05-06 17:12 | 48.35098 | 11.80053 | 1473 ft | 11 kts | 264° |
| 2026-05-06 17:12 | 48.35089 | 11.79938 | 1480 ft | 11 kts | 263° |
| 2026-05-06 17:13 | 48.35080 | 11.79816 | 1480 ft | 12 kts | 263° |
| 2026-05-06 17:13 | 48.35066 | 11.79698 | 1478 ft | 11 kts | 242° |
| 2026-05-06 17:13 | 48.35001 | 11.79669 | 1485 ft | 8 kts | 174° |
| 2026-05-06 17:13 | 48.34963 | 11.79675 | 1478 ft | 0 kts | 174° |
| 2026-05-06 17:15 | 48.34928 | 11.79681 | 1474 ft | 11 kts | 173° |
| 2026-05-06 17:15 | 48.34821 | 11.79699 | 1476 ft | 17 kts | 173° |
| 2026-05-06 17:16 | 48.34703 | 11.79694 | 1485 ft | 17 kts | 213° |
| 2026-05-06 17:16 | 48.34630 | 11.79553 | 1478 ft | 17 kts | 233° |
| 2026-05-06 17:16 | 48.34559 | 11.79410 | 1481 ft | 15 kts | 233° |
| 2026-05-06 17:16 | 48.34502 | 11.79295 | 1478 ft | 12 kts | 233° |
| 2026-05-06 17:17 | 48.34452 | 11.79194 | 1475 ft | 12 kts | 233° |
| 2026-05-06 17:17 | 48.34393 | 11.79122 | 1475 ft | 8 kts | 202° |
| 2026-05-06 17:17 | 48.34373 | 11.79060 | 1482 ft | 4 kts | 263° |
| 2026-05-06 17:17 | 48.34372 | 11.79054 | 1483 ft | 0 kts | 264° |
| 2026-05-06 17:18 | 48.34370 | 11.79015 | 1485 ft | 23 kts | 264° |
| 2026-05-06 17:18 | 48.34325 | 11.78446 | 1485 ft | 86 kts | 263° |
| 2026-05-06 17:18 | 48.34235 | 11.77278 | 1486 ft | 137 kts | 263° |
| 2026-05-06 17:19 | 48.34112 | 11.75676 | 1674 ft | 161 kts | 262° |
| 2026-05-06 17:19 | 48.33988 | 11.74025 | 2360 ft | 159 kts | 263° |
| 2026-05-06 17:19 | 48.33834 | 11.72379 | 2999 ft | 160 kts | 252° |
| 2026-05-06 17:19 | 48.33136 | 11.71080 | 3425 ft | 172 kts | 207° |
| 2026-05-06 17:20 | 48.31875 | 11.70772 | 3638 ft | 198 kts | 185° |
| 2026-05-06 17:20 | 48.30419 | 11.70731 | 3890 ft | 219 kts | 183° |
| 2026-05-06 17:20 | 48.28881 | 11.70914 | 4550 ft | 226 kts | 165° |
| 2026-05-06 17:20 | 48.27436 | 11.72022 | 5000 ft | 247 kts | 148° |
| 2026-05-06 17:21 | 48.25952 | 11.73546 | 5375 ft | 268 kts | 147° |
| 2026-05-06 17:21 | 48.24415 | 11.75132 | 6133 ft | 274 kts | 147° |
| 2026-05-06 17:21 | 48.22837 | 11.76758 | 6931 ft | 277 kts | 147° |
| 2026-05-06 17:21 | 48.21235 | 11.78398 | 7676 ft | 282 kts | 147° |
| 2026-05-06 17:22 | 48.19607 | 11.80053 | 7787 ft | 281 kts | 149° |
| 2026-05-06 17:22 | 48.17851 | 11.81246 | 7806 ft | 277 kts | 168° |
| 2026-05-06 17:22 | 48.15968 | 11.81836 | 7810 ft | 276 kts | 170° |
| 2026-05-06 17:22 | 48.14082 | 11.82403 | 7809 ft | 276 kts | 170° |
| 2026-05-06 17:23 | 48.12197 | 11.82966 | 7818 ft | 276 kts | 170° |
| 2026-05-06 17:23 | 48.10311 | 11.83528 | 7817 ft | 277 kts | 170° |
| 2026-05-06 17:23 | 48.08424 | 11.84091 | 7820 ft | 276 kts | 171° |
| 2026-05-06 17:23 | 48.06569 | 11.84643 | 7824 ft | 276 kts | 171° |
| 2026-05-06 17:24 | 48.04683 | 11.85202 | 7861 ft | 277 kts | 171° |
| 2026-05-06 17:24 | 48.02777 | 11.85766 | 8563 ft | 280 kts | 170° |
| 2026-05-06 17:24 | 48.00861 | 11.86332 | 9434 ft | 282 kts | 170° |
| 2026-05-06 17:24 | 47.98923 | 11.86904 | 10115 ft | 290 kts | 170° |
| 2026-05-06 17:25 | 47.96876 | 11.87507 | 10336 ft | 313 kts | 170° |
| 2026-05-06 17:25 | 47.94661 | 11.88160 | 10504 ft | 336 kts | 170° |
| 2026-05-06 17:25 | 47.92312 | 11.88854 | 10833 ft | 350 kts | 170° |
| 2026-05-06 17:25 | 47.89900 | 11.89571 | 11432 ft | 356 kts | 170° |
| 2026-05-06 17:26 | 47.87458 | 11.90294 | 12098 ft | 359 kts | 170° |
| 2026-05-06 17:26 | 47.84998 | 11.91022 | 12788 ft | 361 kts | 171° |
| 2026-05-06 17:26 | 47.82562 | 11.91741 | 13500 ft | 363 kts | 171° |
| 2026-05-06 17:26 | 47.80073 | 11.92477 | 14121 ft | 366 kts | 171° |
| 2026-05-06 17:27 | 47.77567 | 11.93218 | 14720 ft | 368 kts | 171° |
| 2026-05-06 17:27 | 47.75045 | 11.93961 | 15294 ft | 371 kts | 171° |
| 2026-05-06 17:27 | 47.72488 | 11.94488 | 15846 ft | 372 kts | 179° |
| 2026-05-06 17:27 | 47.69896 | 11.94476 | 16396 ft | 374 kts | 183° |
| 2026-05-06 17:28 | 47.67288 | 11.94420 | 16972 ft | 376 kts | 183° |
| 2026-05-06 17:28 | 47.64663 | 11.94370 | 17520 ft | 379 kts | 182° |
| 2026-05-06 17:28 | 47.62015 | 11.94326 | 18042 ft | 382 kts | 182° |
| 2026-05-06 17:28 | 47.59387 | 11.94283 | 18502 ft | 384 kts | 182° |
| 2026-05-06 17:29 | 47.56707 | 11.94238 | 19015 ft | 386 kts | 182° |
| 2026-05-06 17:29 | 47.54011 | 11.94193 | 19472 ft | 389 kts | 182° |
| 2026-05-06 17:29 | 47.51295 | 11.94149 | 19917 ft | 391 kts | 182° |
| 2026-05-06 17:29 | 47.48564 | 11.94101 | 20375 ft | 394 kts | 182° |
| 2026-05-06 17:30 | 47.45813 | 11.94050 | 20825 ft | 396 kts | 183° |
| 2026-05-06 17:30 | 47.43050 | 11.93956 | 21223 ft | 399 kts | 186° |
| 2026-05-06 17:30 | 47.40296 | 11.93446 | 21660 ft | 400 kts | 189° |
| 2026-05-06 17:30 | 47.37568 | 11.92898 | 22065 ft | 402 kts | 189° |
| 2026-05-06 17:31 | 47.34791 | 11.92347 | 22496 ft | 403 kts | 189° |
| 2026-05-06 17:31 | 47.32003 | 11.91794 | 22923 ft | 405 kts | 189° |
| 2026-05-06 17:31 | 47.29196 | 11.91232 | 23327 ft | 408 kts | 189° |
| 2026-05-06 17:31 | 47.26379 | 11.90665 | 23693 ft | 410 kts | 189° |
| 2026-05-06 17:32 | 47.23547 | 11.90099 | 24060 ft | 411 kts | 189° |
| 2026-05-06 17:32 | 47.20710 | 11.89536 | 24418 ft | 412 kts | 190° |
| 2026-05-06 17:32 | 47.17859 | 11.88969 | 24782 ft | 414 kts | 190° |
| 2026-05-06 17:32 | 47.15007 | 11.88405 | 25175 ft | 414 kts | 190° |
| 2026-05-06 17:33 | 47.12191 | 11.87851 | 25527 ft | 415 kts | 190° |
| 2026-05-06 17:33 | 47.09330 | 11.87286 | 25914 ft | 414 kts | 190° |
| 2026-05-06 17:33 | 47.06466 | 11.86724 | 26248 ft | 417 kts | 190° |
| 2026-05-06 17:33 | 47.03585 | 11.86160 | 26513 ft | 418 kts | 190° |
| 2026-05-06 17:34 | 47.00701 | 11.85558 | 26789 ft | 419 kts | 192° |
| 2026-05-06 17:34 | 46.97831 | 11.84782 | 27096 ft | 419 kts | 194° |
| 2026-05-06 17:34 | 46.94980 | 11.83872 | 27422 ft | 419 kts | 195° |
| 2026-05-06 17:34 | 46.92139 | 11.82902 | 27672 ft | 420 kts | 196° |
| 2026-05-06 17:35 | 46.89289 | 11.81916 | 27976 ft | 421 kts | 196° |
| 2026-05-06 17:35 | 46.86429 | 11.80942 | 28244 ft | 423 kts | 195° |
| 2026-05-06 17:35 | 46.83606 | 11.80008 | 28732 ft | 420 kts | 195° |
| 2026-05-06 17:36 | 46.77922 | 11.78199 | 29558 ft | 417 kts | 195° |
| 2026-05-06 17:36 | 46.75090 | 11.77316 | 29959 ft | 415 kts | 195° |
| 2026-05-06 17:36 | 46.72274 | 11.76439 | 30288 ft | 414 kts | 195° |
| 2026-05-06 17:36 | 46.69457 | 11.75561 | 30575 ft | 413 kts | 195° |
| 2026-05-06 17:37 | 46.66651 | 11.74685 | 30956 ft | 411 kts | 195° |
| 2026-05-06 17:37 | 46.63920 | 11.73547 | 31308 ft | 406 kts | 204° |
| 2026-05-06 17:37 | 46.61400 | 11.71735 | 31567 ft | 403 kts | 213° |
| 2026-05-06 17:37 | 46.59192 | 11.69317 | 31842 ft | 403 kts | 223° |
| 2026-05-06 17:38 | 46.57296 | 11.66338 | 32210 ft | 401 kts | 230° |
| 2026-05-06 17:38 | 46.55564 | 11.63170 | 32569 ft | 399 kts | 230° |
| 2026-05-06 17:38 | 46.53829 | 11.60031 | 32888 ft | 398 kts | 230° |
| 2026-05-06 17:38 | 46.52091 | 11.56906 | 33171 ft | 398 kts | 230° |
| 2026-05-06 17:39 | 46.50348 | 11.53787 | 33430 ft | 398 kts | 230° |
| 2026-05-06 17:39 | 46.48609 | 11.50676 | 33790 ft | 396 kts | 230° |
| 2026-05-06 17:39 | 46.46880 | 11.47576 | 34054 ft | 396 kts | 230° |
| 2026-05-06 17:39 | 46.45173 | 11.44509 | 34255 ft | 397 kts | 230° |
| 2026-05-06 17:40 | 46.43442 | 11.41394 | 34493 ft | 396 kts | 230° |
| 2026-05-06 17:40 | 46.41711 | 11.38288 | 34716 ft | 397 kts | 230° |
| 2026-05-06 17:40 | 46.39973 | 11.35175 | 34909 ft | 397 kts | 230° |
| 2026-05-06 17:40 | 46.38249 | 11.32089 | 34891 ft | 392 kts | 230° |
| 2026-05-06 17:41 | 46.34832 | 11.25982 | 34897 ft | 389 kts | 230° |
| 2026-05-06 17:41 | 46.31429 | 11.19917 | 34976 ft | 388 kts | 230° |
| 2026-05-06 17:42 | 46.28046 | 11.13914 | 34974 ft | 388 kts | 230° |
| 2026-05-06 17:42 | 46.24637 | 11.07874 | 34971 ft | 388 kts | 230° |
| 2026-05-06 17:43 | 46.21234 | 11.01842 | 34959 ft | 387 kts | 230° |
| 2026-05-06 17:43 | 46.17832 | 10.95813 | 34944 ft | 387 kts | 230° |
| 2026-05-06 17:44 | 46.14441 | 10.89836 | 34931 ft | 388 kts | 229° |
| 2026-05-06 17:44 | 46.11017 | 10.83822 | 34928 ft | 388 kts | 229° |
| 2026-05-06 17:45 | 46.07589 | 10.77809 | 34925 ft | 388 kts | 230° |
| 2026-05-06 17:45 | 46.04162 | 10.71805 | 34953 ft | 388 kts | 229° |
| 2026-05-06 17:46 | 46.00739 | 10.65808 | 34945 ft | 387 kts | 229° |
| 2026-05-06 17:46 | 45.97344 | 10.59879 | 34939 ft | 386 kts | 229° |
| 2026-05-06 17:47 | 45.93920 | 10.53915 | 34928 ft | 386 kts | 229° |
| 2026-05-06 17:47 | 45.90497 | 10.47976 | 34914 ft | 386 kts | 229° |
| 2026-05-06 17:48 | 45.87093 | 10.42092 | 34901 ft | 385 kts | 229° |
| 2026-05-06 17:48 | 45.83673 | 10.36194 | 34906 ft | 384 kts | 229° |
| 2026-05-06 17:49 | 45.80261 | 10.30309 | 34907 ft | 383 kts | 229° |
| 2026-05-06 17:49 | 45.76861 | 10.24442 | 34928 ft | 383 kts | 229° |
| 2026-05-06 17:50 | 45.73481 | 10.18627 | 34900 ft | 383 kts | 229° |
| 2026-05-06 17:50 | 45.70065 | 10.12777 | 34858 ft | 383 kts | 229° |
| 2026-05-06 17:51 | 45.66655 | 10.06948 | 34883 ft | 382 kts | 229° |
| 2026-05-06 17:51 | 45.63254 | 10.01130 | 34872 ft | 381 kts | 229° |
| 2026-05-06 17:52 | 45.59849 | 9.95330 | 34872 ft | 381 kts | 229° |
| 2026-05-06 17:52 | 45.56464 | 9.89575 | 34863 ft | 381 kts | 229° |
| 2026-05-06 17:53 | 45.53055 | 9.83801 | 34841 ft | 380 kts | 229° |
| 2026-05-06 17:53 | 45.49645 | 9.78031 | 34844 ft | 381 kts | 229° |
| 2026-05-06 17:54 | 45.47940 | 9.75145 | 35002 ft | 381 kts | 229° |
| 2026-05-06 17:54 | 45.46232 | 9.72253 | 35006 ft | 381 kts | 229° |
| 2026-05-06 17:54 | 45.42831 | 9.66515 | 35007 ft | 382 kts | 229° |
| 2026-05-06 17:55 | 45.39400 | 9.60744 | 34992 ft | 382 kts | 229° |
| 2026-05-06 17:55 | 45.35968 | 9.54976 | 34951 ft | 382 kts | 229° |
| 2026-05-06 17:56 | 45.33113 | 9.50184 | 34928 ft | 382 kts | 229° |
| 2026-05-06 17:56 | 45.29112 | 9.43494 | 34885 ft | 383 kts | 229° |
| 2026-05-06 17:57 | 45.25662 | 9.37737 | 34843 ft | 383 kts | 229° |
| 2026-05-06 17:57 | 45.22207 | 9.31983 | 34793 ft | 383 kts | 229° |
| 2026-05-06 17:58 | 45.19332 | 9.27201 | 34774 ft | 384 kts | 229° |
| 2026-05-06 17:58 | 45.15297 | 9.20499 | 34798 ft | 386 kts | 229° |
| 2026-05-06 17:59 | 45.11803 | 9.14717 | 34797 ft | 387 kts | 229° |
| 2026-05-06 17:59 | 45.08889 | 9.09905 | 34800 ft | 388 kts | 229° |
| 2026-05-06 18:00 | 45.05371 | 9.04107 | 34797 ft | 388 kts | 229° |
| 2026-05-06 18:00 | 45.01280 | 8.97372 | 34790 ft | 388 kts | 229° |
| 2026-05-06 18:01 | 44.98330 | 8.92526 | 34803 ft | 388 kts | 229° |
| 2026-05-06 18:01 | 44.94835 | 8.86796 | 34814 ft | 388 kts | 229° |
| 2026-05-06 18:02 | 44.91314 | 8.81031 | 34814 ft | 387 kts | 229° |
| 2026-05-06 18:02 | 44.87784 | 8.75275 | 34842 ft | 388 kts | 229° |
| 2026-05-06 18:03 | 44.84244 | 8.69520 | 34802 ft | 388 kts | 229° |
| 2026-05-06 18:03 | 44.80728 | 8.63810 | 34809 ft | 388 kts | 229° |
| 2026-05-06 18:04 | 44.77194 | 8.58069 | 34812 ft | 388 kts | 229° |
| 2026-05-06 18:04 | 44.73658 | 8.52326 | 34817 ft | 388 kts | 229° |
| 2026-05-06 18:05 | 44.70117 | 8.46601 | 34813 ft | 388 kts | 229° |
| 2026-05-06 18:05 | 44.66571 | 8.40875 | 34809 ft | 388 kts | 229° |
| 2026-05-06 18:06 | 44.63046 | 8.35213 | 34815 ft | 388 kts | 229° |
| 2026-05-06 18:06 | 44.59492 | 8.29513 | 34828 ft | 388 kts | 229° |
| 2026-05-06 18:07 | 44.55940 | 8.23821 | 34823 ft | 388 kts | 229° |
| 2026-05-06 18:07 | 44.52384 | 8.18130 | 34820 ft | 388 kts | 229° |
| 2026-05-06 18:08 | 44.48846 | 8.12481 | 34822 ft | 388 kts | 229° |
| 2026-05-06 18:08 | 44.45285 | 8.06803 | 34821 ft | 388 kts | 229° |
| 2026-05-06 18:09 | 44.41720 | 8.01127 | 34814 ft | 388 kts | 229° |
| 2026-05-06 18:09 | 44.38147 | 7.95461 | 34831 ft | 389 kts | 229° |
| 2026-05-06 18:10 | 44.34591 | 7.89824 | 34810 ft | 390 kts | 228° |
| 2026-05-06 18:10 | 44.30993 | 7.84144 | 34796 ft | 391 kts | 228° |
| 2026-05-06 18:11 | 44.27384 | 7.78468 | 34796 ft | 391 kts | 226° |
| 2026-05-06 18:11 | 44.23381 | 7.73387 | 34806 ft | 393 kts | 222° |
| 2026-05-06 18:12 | 44.19283 | 7.68341 | 34818 ft | 393 kts | 222° |
| 2026-05-06 18:12 | 44.15183 | 7.63290 | 34797 ft | 393 kts | 224° |
| 2026-05-06 18:13 | 44.11524 | 7.57663 | 34842 ft | 392 kts | 229° |
| 2026-05-06 18:13 | 44.07944 | 7.51938 | 34839 ft | 393 kts | 229° |
| 2026-05-06 18:14 | 44.04382 | 7.46247 | 34833 ft | 393 kts | 229° |
| 2026-05-06 18:14 | 44.00794 | 7.40518 | 34833 ft | 393 kts | 229° |
| 2026-05-06 18:15 | 43.97195 | 7.34798 | 34826 ft | 393 kts | 229° |
| 2026-05-06 18:15 | 43.93596 | 7.29091 | 34845 ft | 393 kts | 229° |
| 2026-05-06 18:16 | 43.90027 | 7.23435 | 34839 ft | 392 kts | 229° |
| 2026-05-06 18:16 | 43.86440 | 7.17757 | 34834 ft | 391 kts | 229° |
| 2026-05-06 18:17 | 43.82842 | 7.12080 | 34842 ft | 392 kts | 229° |
| 2026-05-06 18:17 | 43.79246 | 7.06421 | 34832 ft | 391 kts | 229° |
| 2026-05-06 18:18 | 43.75676 | 7.00808 | 34847 ft | 391 kts | 229° |
| 2026-05-06 18:18 | 43.72282 | 6.94948 | 34847 ft | 391 kts | 238° |
| 2026-05-06 18:19 | 43.70073 | 6.88078 | 34849 ft | 392 kts | 246° |
| 2026-05-06 18:19 | 43.68021 | 6.81104 | 34881 ft | 392 kts | 246° |
| 2026-05-06 18:20 | 43.65976 | 6.74175 | 34879 ft | 392 kts | 246° |
| 2026-05-06 18:20 | 43.63906 | 6.67201 | 34889 ft | 393 kts | 245° |
| 2026-05-06 18:21 | 43.61833 | 6.60231 | 34872 ft | 392 kts | 246° |
| 2026-05-06 18:21 | 43.59760 | 6.53265 | 34884 ft | 392 kts | 246° |
| 2026-05-06 18:22 | 43.57686 | 6.46305 | 34910 ft | 392 kts | 246° |
| 2026-05-06 18:22 | 43.55618 | 6.39385 | 34893 ft | 393 kts | 246° |
| 2026-05-06 18:23 | 43.53521 | 6.32411 | 34894 ft | 394 kts | 246° |
| 2026-05-06 18:23 | 43.51419 | 6.25433 | 34892 ft | 395 kts | 246° |
| 2026-05-06 18:24 | 43.49314 | 6.18452 | 34895 ft | 395 kts | 246° |
| 2026-05-06 18:24 | 43.47219 | 6.11520 | 34898 ft | 395 kts | 245° |
| 2026-05-06 18:25 | 43.45102 | 6.04542 | 34906 ft | 395 kts | 246° |
| 2026-05-06 18:25 | 43.42986 | 5.97565 | 34913 ft | 395 kts | 246° |
| 2026-05-06 18:26 | 43.40857 | 5.90583 | 34922 ft | 396 kts | 246° |
| 2026-05-06 18:26 | 43.38718 | 5.83614 | 34926 ft | 396 kts | 246° |
| 2026-05-06 18:27 | 43.36601 | 5.76688 | 34930 ft | 396 kts | 246° |
| 2026-05-06 18:27 | 43.34454 | 5.69723 | 34953 ft | 396 kts | 246° |
| 2026-05-06 18:28 | 43.32299 | 5.62753 | 34940 ft | 397 kts | 246° |
| 2026-05-06 18:28 | 43.30159 | 5.55817 | 34930 ft | 397 kts | 246° |
| 2026-05-06 18:29 | 43.28003 | 5.48838 | 34910 ft | 397 kts | 246° |
| 2026-05-06 18:29 | 43.25816 | 5.41876 | 34915 ft | 397 kts | 243° |
| 2026-05-06 18:30 | 43.22643 | 5.35788 | 34924 ft | 396 kts | 233° |
| 2026-05-06 18:30 | 43.19236 | 5.29846 | 34942 ft | 397 kts | 233° |
| 2026-05-06 18:31 | 43.15835 | 5.23952 | 34936 ft | 397 kts | 233° |
| 2026-05-06 18:31 | 43.12404 | 5.18012 | 34939 ft | 398 kts | 233° |
| 2026-05-06 18:32 | 43.08975 | 5.12072 | 34932 ft | 398 kts | 233° |
| 2026-05-06 18:32 | 43.05543 | 5.06139 | 34941 ft | 397 kts | 233° |
| 2026-05-06 18:33 | 43.02130 | 5.00257 | 34943 ft | 397 kts | 233° |
| 2026-05-06 18:33 | 42.98691 | 4.94347 | 34964 ft | 397 kts | 233° |
| 2026-05-06 18:34 | 42.95250 | 4.88441 | 34957 ft | 398 kts | 233° |
| 2026-05-06 18:34 | 42.91806 | 4.82538 | 34952 ft | 398 kts | 233° |
| 2026-05-06 18:35 | 42.88359 | 4.76640 | 34950 ft | 397 kts | 233° |
| 2026-05-06 18:35 | 42.84936 | 4.70794 | 34952 ft | 397 kts | 233° |
| 2026-05-06 18:36 | 42.81487 | 4.64920 | 34954 ft | 397 kts | 233° |
| 2026-05-06 18:36 | 42.78038 | 4.59053 | 34956 ft | 397 kts | 233° |
| 2026-05-06 18:37 | 42.74585 | 4.53189 | 34976 ft | 397 kts | 233° |
| 2026-05-06 18:37 | 42.71144 | 4.47374 | 34970 ft | 397 kts | 233° |
| 2026-05-06 18:38 | 42.67680 | 4.41517 | 34968 ft | 398 kts | 233° |
| 2026-05-06 18:38 | 42.64214 | 4.35657 | 34966 ft | 398 kts | 233° |
| 2026-05-06 18:39 | 42.60740 | 4.29811 | 34965 ft | 398 kts | 233° |
| 2026-05-06 18:40 | 42.55522 | 4.21051 | 34968 ft | 398 kts | 233° |
| 2026-05-06 18:40 | 42.52057 | 4.15259 | 34958 ft | 398 kts | 233° |
| 2026-05-06 18:41 | 42.48569 | 4.09436 | 34967 ft | 398 kts | 233° |
| 2026-05-06 18:41 | 42.45083 | 4.03623 | 34971 ft | 398 kts | 233° |
| 2026-05-06 18:42 | 42.41597 | 3.97810 | 34972 ft | 397 kts | 233° |
| 2026-05-06 18:42 | 42.38135 | 3.92045 | 34973 ft | 397 kts | 233° |
| 2026-05-06 18:43 | 42.34645 | 3.86248 | 34976 ft | 397 kts | 232° |
| 2026-05-06 18:43 | 42.31738 | 3.81445 | 34952 ft | 397 kts | 233° |